OCN3TG LGIR-EDDM
Flight info
| Callsign | OCN3TG |
|---|---|
| Flight time | 2h 33m |
| Altitude | 36000 |
| Route | EPALO M749 DIRMI UL613 YNN UL604 DIMIS DCT RETRA DCT NIVES DCT GORPA DCT RASTA DCT REDBU Q112 NAPSA NAPSA1B |
| Aircraft | A320/M-SDE3FGHIRWY/LB1 |
Departure
| Time | 2026-05-05 15:53 |
|---|---|
| Airport | Heraklion International Nikos Kazantzakis Airport (LGIR) |
Arrival
| Time | 2026-05-05 18:26 |
|---|---|
| Airport | Munich Airport (EDDM) |
| Time | Latitude | Longitude | Altitude | Speed | Heading |
|---|---|---|---|---|---|
| 2026-05-05 15:10 | 35.33812 | 25.17540 | 91 ft | 0 kts | 316° |
| 2026-05-05 15:47 | 35.33841 | 25.17507 | 91 ft | 8 kts | 322° |
| 2026-05-05 15:47 | 35.33897 | 25.17510 | 93 ft | 9 kts | 39° |
| 2026-05-05 15:48 | 35.33907 | 25.17598 | 91 ft | 14 kts | 95° |
| 2026-05-05 15:48 | 35.33897 | 25.17717 | 94 ft | 13 kts | 95° |
| 2026-05-05 15:48 | 35.33892 | 25.17788 | 92 ft | 12 kts | 94° |
| 2026-05-05 15:48 | 35.33882 | 25.17965 | 94 ft | 18 kts | 93° |
| 2026-05-05 15:49 | 35.33870 | 25.18110 | 92 ft | 16 kts | 96° |
| 2026-05-05 15:49 | 35.33860 | 25.18263 | 93 ft | 23 kts | 95° |
| 2026-05-05 15:49 | 35.33850 | 25.18399 | 91 ft | 24 kts | 95° |
| 2026-05-05 15:49 | 35.33835 | 25.18599 | 90 ft | 19 kts | 95° |
| 2026-05-05 15:50 | 35.33826 | 25.18739 | 94 ft | 11 kts | 95° |
| 2026-05-05 15:50 | 35.33819 | 25.18829 | 90 ft | 10 kts | 95° |
| 2026-05-05 15:50 | 35.33815 | 25.18909 | 90 ft | 9 kts | 85° |
| 2026-05-05 15:50 | 35.33831 | 25.18948 | 90 ft | 0 kts | 56° |
| 2026-05-05 15:51 | 35.33832 | 25.18949 | 90 ft | 1 kts | 56° |
| 2026-05-05 15:51 | 35.33852 | 25.18985 | 89 ft | 9 kts | 56° |
| 2026-05-05 15:51 | 35.33894 | 25.19036 | 90 ft | 7 kts | 5° |
| 2026-05-05 15:52 | 35.33908 | 25.18994 | 90 ft | 0 kts | 272° |
| 2026-05-05 15:52 | 35.33917 | 25.18839 | 89 ft | 53 kts | 275° |
| 2026-05-05 15:53 | 35.33967 | 25.18116 | 92 ft | 115 kts | 274° |
| 2026-05-05 15:53 | 35.34040 | 25.16936 | 138 ft | 158 kts | 275° |
| 2026-05-05 15:53 | 35.34101 | 25.15555 | 685 ft | 166 kts | 276° |
| 2026-05-05 15:53 | 35.34525 | 25.14198 | 1213 ft | 180 kts | 310° |
| 2026-05-05 15:54 | 35.35552 | 25.13366 | 1847 ft | 178 kts | 343° |
| 2026-05-05 15:54 | 35.36761 | 25.13052 | 2436 ft | 181 kts | 345° |
| 2026-05-05 15:54 | 35.38003 | 25.12699 | 2984 ft | 187 kts | 343° |
| 2026-05-05 15:54 | 35.39307 | 25.12264 | 3254 ft | 207 kts | 342° |
| 2026-05-05 15:55 | 35.40757 | 25.11757 | 3576 ft | 227 kts | 342° |
| 2026-05-05 15:55 | 35.42335 | 25.11202 | 3976 ft | 248 kts | 343° |
| 2026-05-05 15:55 | 35.44041 | 25.10606 | 4708 ft | 256 kts | 343° |
| 2026-05-05 15:55 | 35.45759 | 25.09984 | 5571 ft | 258 kts | 343° |
| 2026-05-05 15:56 | 35.47470 | 25.09298 | 6479 ft | 259 kts | 343° |
| 2026-05-05 15:56 | 35.49187 | 25.08582 | 7318 ft | 261 kts | 342° |
| 2026-05-05 15:56 | 35.50911 | 25.07856 | 8132 ft | 263 kts | 342° |
| 2026-05-05 15:56 | 35.52652 | 25.07122 | 8933 ft | 266 kts | 341° |
| 2026-05-05 15:57 | 35.54415 | 25.06384 | 9757 ft | 269 kts | 341° |
| 2026-05-05 15:57 | 35.56204 | 25.05639 | 10425 ft | 277 kts | 341° |
| 2026-05-05 15:57 | 35.58104 | 25.04848 | 10647 ft | 300 kts | 341° |
| 2026-05-05 15:57 | 35.60153 | 25.03994 | 10820 ft | 322 kts | 341° |
| 2026-05-05 15:58 | 35.62341 | 25.03079 | 11102 ft | 339 kts | 341° |
| 2026-05-05 15:58 | 35.64539 | 25.01885 | 11667 ft | 345 kts | 327° |
| 2026-05-05 15:58 | 35.66512 | 25.00173 | 12333 ft | 348 kts | 324° |
| 2026-05-05 15:58 | 35.68484 | 24.98421 | 13026 ft | 351 kts | 324° |
| 2026-05-05 15:59 | 35.70468 | 24.96647 | 13712 ft | 354 kts | 324° |
| 2026-05-05 15:59 | 35.72464 | 24.94854 | 14338 ft | 357 kts | 323° |
| 2026-05-05 15:59 | 35.74478 | 24.93041 | 14929 ft | 359 kts | 324° |
| 2026-05-05 15:59 | 35.76504 | 24.91222 | 15523 ft | 361 kts | 324° |
| 2026-05-05 16:00 | 35.78550 | 24.89389 | 16125 ft | 363 kts | 324° |
| 2026-05-05 16:00 | 35.80569 | 24.87573 | 16701 ft | 365 kts | 324° |
| 2026-05-05 16:00 | 35.82652 | 24.85697 | 17279 ft | 367 kts | 323° |
| 2026-05-05 16:00 | 35.84697 | 24.83857 | 17827 ft | 370 kts | 324° |
| 2026-05-05 16:01 | 35.86783 | 24.81985 | 18378 ft | 372 kts | 324° |
| 2026-05-05 16:01 | 35.88907 | 24.80078 | 18871 ft | 374 kts | 324° |
| 2026-05-05 16:01 | 35.90989 | 24.78200 | 19341 ft | 376 kts | 323° |
| 2026-05-05 16:01 | 35.93102 | 24.76291 | 19813 ft | 378 kts | 323° |
| 2026-05-05 16:02 | 35.95225 | 24.74372 | 20287 ft | 379 kts | 323° |
| 2026-05-05 16:02 | 35.97359 | 24.72444 | 20752 ft | 381 kts | 323° |
| 2026-05-05 16:02 | 35.99505 | 24.70506 | 21217 ft | 383 kts | 323° |
| 2026-05-05 16:02 | 36.01660 | 24.68563 | 21668 ft | 385 kts | 323° |
| 2026-05-05 16:03 | 36.03820 | 24.66609 | 22117 ft | 386 kts | 323° |
| 2026-05-05 16:03 | 36.05995 | 24.64638 | 22553 ft | 388 kts | 323° |
| 2026-05-05 16:03 | 36.08177 | 24.62662 | 22981 ft | 390 kts | 323° |
| 2026-05-05 16:03 | 36.10372 | 24.60674 | 23398 ft | 392 kts | 323° |
| 2026-05-05 16:04 | 36.12573 | 24.58677 | 23784 ft | 394 kts | 323° |
| 2026-05-05 16:04 | 36.14785 | 24.56667 | 24136 ft | 395 kts | 323° |
| 2026-05-05 16:04 | 36.17001 | 24.54652 | 24490 ft | 396 kts | 323° |
| 2026-05-05 16:04 | 36.19229 | 24.52625 | 24845 ft | 397 kts | 323° |
| 2026-05-05 16:05 | 36.21461 | 24.50597 | 25210 ft | 398 kts | 324° |
| 2026-05-05 16:05 | 36.23694 | 24.48570 | 25564 ft | 399 kts | 324° |
| 2026-05-05 16:05 | 36.25933 | 24.46535 | 25900 ft | 400 kts | 324° |
| 2026-05-05 16:05 | 36.28175 | 24.44491 | 26230 ft | 401 kts | 324° |
| 2026-05-05 16:06 | 36.30425 | 24.42438 | 26557 ft | 402 kts | 324° |
| 2026-05-05 16:06 | 36.32678 | 24.40380 | 26868 ft | 403 kts | 324° |
| 2026-05-05 16:06 | 36.34937 | 24.38316 | 27170 ft | 404 kts | 324° |
| 2026-05-05 16:06 | 36.37206 | 24.36242 | 27469 ft | 405 kts | 324° |
| 2026-05-05 16:07 | 36.39480 | 24.34162 | 27771 ft | 406 kts | 324° |
| 2026-05-05 16:07 | 36.41759 | 24.32080 | 28065 ft | 408 kts | 324° |
| 2026-05-05 16:07 | 36.44047 | 24.29987 | 28392 ft | 407 kts | 324° |
| 2026-05-05 16:07 | 36.46319 | 24.27902 | 28819 ft | 405 kts | 324° |
| 2026-05-05 16:08 | 36.48576 | 24.25828 | 29255 ft | 403 kts | 324° |
| 2026-05-05 16:08 | 36.50829 | 24.23753 | 29690 ft | 401 kts | 324° |
| 2026-05-05 16:08 | 36.53063 | 24.21695 | 30136 ft | 399 kts | 324° |
| 2026-05-05 16:08 | 36.55295 | 24.19639 | 30481 ft | 397 kts | 324° |
| 2026-05-05 16:09 | 36.57516 | 24.17596 | 30798 ft | 397 kts | 324° |
| 2026-05-05 16:09 | 36.59735 | 24.15554 | 31107 ft | 396 kts | 323° |
| 2026-05-05 16:09 | 36.61948 | 24.13516 | 31408 ft | 396 kts | 323° |
| 2026-05-05 16:09 | 36.64158 | 24.11480 | 31713 ft | 395 kts | 323° |
| 2026-05-05 16:10 | 36.66366 | 24.09444 | 32023 ft | 395 kts | 323° |
| 2026-05-05 16:10 | 36.68569 | 24.07408 | 32331 ft | 394 kts | 323° |
| 2026-05-05 16:10 | 36.70771 | 24.05371 | 32632 ft | 394 kts | 323° |
| 2026-05-05 16:10 | 36.72967 | 24.03335 | 32933 ft | 393 kts | 323° |
| 2026-05-05 16:11 | 36.75190 | 24.01275 | 33242 ft | 393 kts | 323° |
| 2026-05-05 16:11 | 36.81732 | 23.95208 | 34130 ft | 391 kts | 323° |
| 2026-05-05 16:12 | 36.83913 | 23.93180 | 34396 ft | 391 kts | 322° |
| 2026-05-05 16:12 | 36.88275 | 23.89124 | 34880 ft | 390 kts | 322° |
| 2026-05-05 16:13 | 36.94802 | 23.83046 | 35580 ft | 389 kts | 322° |
| 2026-05-05 16:13 | 36.96975 | 23.81023 | 35798 ft | 389 kts | 322° |
| 2026-05-05 16:13 | 36.99148 | 23.79000 | 35991 ft | 389 kts | 322° |
| 2026-05-05 16:14 | 37.07870 | 23.70844 | 36060 ft | 392 kts | 322° |
| 2026-05-05 16:15 | 37.16606 | 23.62653 | 36057 ft | 392 kts | 322° |
| 2026-05-05 16:16 | 37.25334 | 23.54444 | 36054 ft | 392 kts | 322° |
| 2026-05-05 16:17 | 37.31876 | 23.48271 | 36056 ft | 392 kts | 322° |
| 2026-05-05 16:18 | 37.38416 | 23.42088 | 36061 ft | 392 kts | 322° |
| 2026-05-05 16:19 | 37.44943 | 23.35897 | 36064 ft | 392 kts | 322° |
| 2026-05-05 16:19 | 37.51465 | 23.29705 | 36063 ft | 392 kts | 322° |
| 2026-05-05 16:20 | 37.60162 | 23.21437 | 36059 ft | 391 kts | 322° |
| 2026-05-05 16:22 | 37.71018 | 23.11077 | 36067 ft | 391 kts | 322° |
| 2026-05-05 16:23 | 37.79691 | 23.02750 | 36061 ft | 391 kts | 322° |
| 2026-05-05 16:23 | 37.86172 | 22.96529 | 36060 ft | 391 kts | 322° |
| 2026-05-05 16:24 | 37.90533 | 22.92325 | 36062 ft | 391 kts | 322° |
| 2026-05-05 16:25 | 37.96996 | 22.86093 | 36067 ft | 390 kts | 322° |
| 2026-05-05 16:25 | 38.03472 | 22.79837 | 36060 ft | 390 kts | 322° |
| 2026-05-05 16:26 | 38.11403 | 22.72145 | 36079 ft | 390 kts | 322° |
| 2026-05-05 16:27 | 38.15444 | 22.67549 | 36066 ft | 390 kts | 318° |
| 2026-05-05 16:27 | 38.19451 | 22.62884 | 36075 ft | 390 kts | 318° |
| 2026-05-05 16:28 | 38.23458 | 22.58221 | 36076 ft | 390 kts | 318° |
| 2026-05-05 16:28 | 38.27463 | 22.53551 | 36076 ft | 390 kts | 318° |
| 2026-05-05 16:29 | 38.31457 | 22.48891 | 36088 ft | 390 kts | 318° |
| 2026-05-05 16:29 | 38.35450 | 22.44222 | 36076 ft | 389 kts | 318° |
| 2026-05-05 16:30 | 38.39443 | 22.39542 | 36083 ft | 389 kts | 318° |
| 2026-05-05 16:30 | 38.43423 | 22.34859 | 36079 ft | 389 kts | 318° |
| 2026-05-05 16:31 | 38.47394 | 22.30181 | 36084 ft | 389 kts | 318° |
| 2026-05-05 16:31 | 38.51450 | 22.25616 | 36075 ft | 389 kts | 320° |
| 2026-05-05 16:32 | 38.55666 | 22.21297 | 36074 ft | 389 kts | 322° |
| 2026-05-05 16:32 | 38.59916 | 22.16990 | 36065 ft | 389 kts | 321° |
| 2026-05-05 16:33 | 38.64134 | 22.12641 | 36071 ft | 390 kts | 321° |
| 2026-05-05 16:33 | 38.68307 | 22.08283 | 36067 ft | 390 kts | 321° |
| 2026-05-05 16:34 | 38.72515 | 22.03875 | 36073 ft | 391 kts | 321° |
| 2026-05-05 16:34 | 38.76730 | 21.99460 | 36069 ft | 391 kts | 321° |
| 2026-05-05 16:35 | 38.80938 | 21.95050 | 36072 ft | 392 kts | 321° |
| 2026-05-05 16:35 | 38.85181 | 21.90611 | 36070 ft | 393 kts | 321° |
| 2026-05-05 16:36 | 38.89419 | 21.86168 | 36076 ft | 393 kts | 321° |
| 2026-05-05 16:36 | 38.93677 | 21.81688 | 36075 ft | 393 kts | 321° |
| 2026-05-05 16:37 | 38.97909 | 21.77234 | 36074 ft | 394 kts | 321° |
| 2026-05-05 16:37 | 39.02138 | 21.72759 | 36078 ft | 394 kts | 321° |
| 2026-05-05 16:38 | 39.06375 | 21.68282 | 36074 ft | 394 kts | 321° |
| 2026-05-05 16:38 | 39.10618 | 21.63797 | 36073 ft | 395 kts | 321° |
| 2026-05-05 16:39 | 39.14862 | 21.59301 | 36072 ft | 395 kts | 321° |
| 2026-05-05 16:39 | 39.19129 | 21.54756 | 36074 ft | 396 kts | 320° |
| 2026-05-05 16:40 | 39.23381 | 21.50235 | 36080 ft | 396 kts | 321° |
| 2026-05-05 16:40 | 39.27631 | 21.45707 | 36084 ft | 396 kts | 321° |
| 2026-05-05 16:41 | 39.31884 | 21.41162 | 36091 ft | 397 kts | 320° |
| 2026-05-05 16:41 | 39.36138 | 21.36616 | 36096 ft | 397 kts | 321° |
| 2026-05-05 16:42 | 39.40389 | 21.32069 | 36095 ft | 397 kts | 321° |
| 2026-05-05 16:42 | 39.44649 | 21.27506 | 36103 ft | 398 kts | 320° |
| 2026-05-05 16:43 | 39.48913 | 21.22927 | 36103 ft | 398 kts | 320° |
| 2026-05-05 16:43 | 39.53175 | 21.18337 | 36104 ft | 399 kts | 320° |
| 2026-05-05 16:44 | 39.57453 | 21.13735 | 36107 ft | 400 kts | 320° |
| 2026-05-05 16:44 | 39.61732 | 21.09114 | 36106 ft | 400 kts | 320° |
| 2026-05-05 16:45 | 39.66006 | 21.04487 | 36107 ft | 401 kts | 320° |
| 2026-05-05 16:45 | 39.70292 | 20.99844 | 36102 ft | 401 kts | 320° |
| 2026-05-05 16:46 | 39.74576 | 20.95202 | 36102 ft | 401 kts | 320° |
| 2026-05-05 16:46 | 39.78857 | 20.90556 | 36101 ft | 401 kts | 320° |
| 2026-05-05 16:47 | 39.83138 | 20.85889 | 36105 ft | 402 kts | 320° |
| 2026-05-05 16:47 | 39.87418 | 20.81213 | 36106 ft | 402 kts | 320° |
| 2026-05-05 16:48 | 39.91705 | 20.76530 | 36112 ft | 403 kts | 320° |
| 2026-05-05 16:48 | 39.95999 | 20.71842 | 36116 ft | 403 kts | 320° |
| 2026-05-05 16:49 | 40.00319 | 20.67117 | 36113 ft | 403 kts | 320° |
| 2026-05-05 16:49 | 40.04602 | 20.62398 | 36111 ft | 403 kts | 320° |
| 2026-05-05 16:50 | 40.09209 | 20.58356 | 36112 ft | 403 kts | 335° |
| 2026-05-05 16:50 | 40.14360 | 20.55456 | 36106 ft | 404 kts | 335° |
| 2026-05-05 16:51 | 40.19524 | 20.52553 | 36105 ft | 404 kts | 335° |
| 2026-05-05 16:51 | 40.24681 | 20.49639 | 36107 ft | 404 kts | 335° |
| 2026-05-05 16:52 | 40.29838 | 20.46702 | 36109 ft | 404 kts | 335° |
| 2026-05-05 16:52 | 40.35034 | 20.43739 | 36104 ft | 404 kts | 335° |
| 2026-05-05 16:53 | 40.40202 | 20.40800 | 36109 ft | 405 kts | 335° |
| 2026-05-05 16:53 | 40.45370 | 20.37859 | 36108 ft | 405 kts | 335° |
| 2026-05-05 16:54 | 40.50539 | 20.34901 | 36101 ft | 405 kts | 335° |
| 2026-05-05 16:54 | 40.55713 | 20.31940 | 36098 ft | 405 kts | 335° |
| 2026-05-05 16:55 | 40.60888 | 20.28974 | 36102 ft | 406 kts | 335° |
| 2026-05-05 16:55 | 40.66069 | 20.25995 | 36101 ft | 406 kts | 335° |
| 2026-05-05 16:56 | 40.71258 | 20.23016 | 36104 ft | 407 kts | 335° |
| 2026-05-05 16:56 | 40.76445 | 20.20032 | 36106 ft | 407 kts | 335° |
| 2026-05-05 16:57 | 40.81635 | 20.17038 | 36104 ft | 407 kts | 335° |
| 2026-05-05 16:57 | 40.86833 | 20.14038 | 36101 ft | 407 kts | 335° |
| 2026-05-05 16:58 | 40.92029 | 20.11029 | 36096 ft | 408 kts | 335° |
| 2026-05-05 16:58 | 40.96352 | 20.08518 | 36097 ft | 408 kts | 335° |
| 2026-05-05 16:59 | 41.01590 | 20.05468 | 36093 ft | 409 kts | 335° |
| 2026-05-05 16:59 | 41.06830 | 20.02423 | 36095 ft | 409 kts | 335° |
| 2026-05-05 17:00 | 41.12041 | 19.99385 | 36093 ft | 409 kts | 335° |
| 2026-05-05 17:00 | 41.17259 | 19.96341 | 36093 ft | 410 kts | 336° |
| 2026-05-05 17:01 | 41.22486 | 19.93289 | 36094 ft | 411 kts | 335° |
| 2026-05-05 17:01 | 41.27721 | 19.90211 | 36095 ft | 411 kts | 335° |
| 2026-05-05 17:02 | 41.32954 | 19.87133 | 36100 ft | 411 kts | 336° |
| 2026-05-05 17:02 | 41.38164 | 19.84074 | 36102 ft | 412 kts | 336° |
| 2026-05-05 17:03 | 41.43406 | 19.80987 | 36100 ft | 412 kts | 336° |
| 2026-05-05 17:03 | 41.48655 | 19.77897 | 36102 ft | 413 kts | 336° |
| 2026-05-05 17:04 | 41.53914 | 19.74788 | 36100 ft | 413 kts | 336° |
| 2026-05-05 17:04 | 41.59165 | 19.71669 | 36090 ft | 413 kts | 336° |
| 2026-05-05 17:05 | 41.64457 | 19.68521 | 36084 ft | 413 kts | 336° |
| 2026-05-05 17:05 | 41.69720 | 19.65398 | 36084 ft | 414 kts | 336° |
| 2026-05-05 17:06 | 41.74952 | 19.62289 | 36084 ft | 415 kts | 336° |
| 2026-05-05 17:06 | 41.80228 | 19.59142 | 36075 ft | 415 kts | 336° |
| 2026-05-05 17:07 | 41.85511 | 19.55982 | 36080 ft | 416 kts | 336° |
| 2026-05-05 17:07 | 41.90803 | 19.52811 | 36074 ft | 416 kts | 336° |
| 2026-05-05 17:08 | 41.96097 | 19.49640 | 36080 ft | 417 kts | 335° |
| 2026-05-05 17:08 | 42.01423 | 19.46444 | 36076 ft | 417 kts | 335° |
| 2026-05-05 17:09 | 42.06720 | 19.43249 | 36080 ft | 417 kts | 335° |
| 2026-05-05 17:09 | 42.12016 | 19.40046 | 36082 ft | 417 kts | 335° |
| 2026-05-05 17:10 | 42.17311 | 19.36849 | 36088 ft | 417 kts | 335° |
| 2026-05-05 17:10 | 42.22564 | 19.33517 | 36089 ft | 417 kts | 329° |
| 2026-05-05 17:11 | 42.27199 | 19.28820 | 36088 ft | 417 kts | 322° |
| 2026-05-05 17:11 | 42.31746 | 19.23932 | 36087 ft | 418 kts | 322° |
| 2026-05-05 17:12 | 42.36298 | 19.19046 | 36089 ft | 418 kts | 322° |
| 2026-05-05 17:12 | 42.40851 | 19.14150 | 36087 ft | 418 kts | 322° |
| 2026-05-05 17:13 | 42.45399 | 19.09245 | 36085 ft | 419 kts | 322° |
| 2026-05-05 17:13 | 42.49951 | 19.04315 | 36086 ft | 419 kts | 321° |
| 2026-05-05 17:14 | 42.54504 | 18.99379 | 36090 ft | 419 kts | 321° |
| 2026-05-05 17:14 | 42.59066 | 18.94430 | 36096 ft | 419 kts | 321° |
| 2026-05-05 17:15 | 42.63618 | 18.89475 | 36100 ft | 419 kts | 321° |
| 2026-05-05 17:15 | 42.68141 | 18.84534 | 36105 ft | 419 kts | 321° |
| 2026-05-05 17:16 | 42.72680 | 18.79573 | 36105 ft | 419 kts | 321° |
| 2026-05-05 17:16 | 42.77219 | 18.74597 | 36106 ft | 419 kts | 321° |
| 2026-05-05 17:17 | 42.81782 | 18.69588 | 36109 ft | 418 kts | 321° |
| 2026-05-05 17:17 | 42.86286 | 18.64640 | 36107 ft | 418 kts | 321° |
| 2026-05-05 17:18 | 42.90814 | 18.59659 | 36106 ft | 418 kts | 321° |
| 2026-05-05 17:18 | 42.95343 | 18.54672 | 36105 ft | 418 kts | 321° |
| 2026-05-05 17:19 | 42.99864 | 18.49679 | 36107 ft | 418 kts | 321° |
| 2026-05-05 17:19 | 43.04383 | 18.44670 | 36104 ft | 418 kts | 321° |
| 2026-05-05 17:20 | 43.08900 | 18.39651 | 36101 ft | 418 kts | 320° |
| 2026-05-05 17:20 | 43.13410 | 18.34637 | 36100 ft | 418 kts | 321° |
| 2026-05-05 17:21 | 43.17921 | 18.29614 | 36098 ft | 418 kts | 320° |
| 2026-05-05 17:22 | 43.24691 | 18.22054 | 36088 ft | 419 kts | 320° |
| 2026-05-05 17:22 | 43.29209 | 18.16995 | 36089 ft | 419 kts | 320° |
| 2026-05-05 17:23 | 43.33723 | 18.11928 | 36088 ft | 419 kts | 320° |
| 2026-05-05 17:23 | 43.38240 | 18.06846 | 36087 ft | 419 kts | 320° |
| 2026-05-05 17:24 | 43.42760 | 18.01759 | 36087 ft | 420 kts | 320° |
| 2026-05-05 17:24 | 43.47251 | 17.96693 | 36088 ft | 420 kts | 320° |
| 2026-05-05 17:25 | 43.51778 | 17.91586 | 36085 ft | 420 kts | 320° |
| 2026-05-05 17:25 | 43.56324 | 17.86439 | 36082 ft | 420 kts | 320° |
| 2026-05-05 17:26 | 43.60814 | 17.81343 | 36096 ft | 420 kts | 317° |
| 2026-05-05 17:26 | 43.65339 | 17.76188 | 36098 ft | 419 kts | 317° |
| 2026-05-05 17:27 | 43.69818 | 17.71072 | 36099 ft | 418 kts | 317° |
| 2026-05-05 17:27 | 43.74302 | 17.65954 | 36096 ft | 417 kts | 317° |
| 2026-05-05 17:28 | 43.78777 | 17.60838 | 36091 ft | 417 kts | 317° |
| 2026-05-05 17:28 | 43.83249 | 17.55712 | 36086 ft | 417 kts | 317° |
| 2026-05-05 17:29 | 43.87746 | 17.50537 | 36082 ft | 417 kts | 317° |
| 2026-05-05 17:29 | 43.92214 | 17.45391 | 36075 ft | 418 kts | 317° |
| 2026-05-05 17:30 | 43.96686 | 17.40239 | 36071 ft | 418 kts | 317° |
| 2026-05-05 17:30 | 44.01156 | 17.35064 | 36066 ft | 418 kts | 317° |
| 2026-05-05 17:31 | 44.05626 | 17.29886 | 36057 ft | 418 kts | 317° |
| 2026-05-05 17:31 | 44.09368 | 17.25546 | 36053 ft | 418 kts | 317° |
| 2026-05-05 17:32 | 44.13850 | 17.20336 | 36050 ft | 419 kts | 317° |
| 2026-05-05 17:32 | 44.18305 | 17.15148 | 36035 ft | 419 kts | 317° |
| 2026-05-05 17:33 | 44.22769 | 17.09935 | 36031 ft | 419 kts | 317° |
| 2026-05-05 17:33 | 44.27263 | 17.04680 | 36027 ft | 420 kts | 317° |
| 2026-05-05 17:34 | 44.31724 | 16.99450 | 36027 ft | 420 kts | 317° |
| 2026-05-05 17:34 | 44.36196 | 16.94201 | 36025 ft | 421 kts | 317° |
| 2026-05-05 17:35 | 44.40725 | 16.88874 | 36019 ft | 422 kts | 316° |
| 2026-05-05 17:35 | 44.45210 | 16.83576 | 36019 ft | 422 kts | 316° |
| 2026-05-05 17:36 | 44.49704 | 16.78256 | 36011 ft | 423 kts | 316° |
| 2026-05-05 17:36 | 44.54225 | 16.72898 | 36012 ft | 424 kts | 316° |
| 2026-05-05 17:37 | 44.58758 | 16.67519 | 36007 ft | 424 kts | 316° |
| 2026-05-05 17:37 | 44.63263 | 16.62159 | 36007 ft | 425 kts | 316° |
| 2026-05-05 17:38 | 44.67777 | 16.56779 | 36010 ft | 425 kts | 316° |
| 2026-05-05 17:38 | 44.72312 | 16.51356 | 36011 ft | 425 kts | 316° |
| 2026-05-05 17:39 | 44.76825 | 16.45955 | 36010 ft | 426 kts | 316° |
| 2026-05-05 17:39 | 44.81397 | 16.40474 | 36005 ft | 426 kts | 316° |
| 2026-05-05 17:40 | 44.85907 | 16.35054 | 36008 ft | 426 kts | 316° |
| 2026-05-05 17:40 | 44.90425 | 16.29618 | 36007 ft | 427 kts | 316° |
| 2026-05-05 17:41 | 44.94934 | 16.24171 | 36005 ft | 427 kts | 316° |
| 2026-05-05 17:41 | 44.99466 | 16.18679 | 36008 ft | 427 kts | 316° |
| 2026-05-05 17:42 | 45.03979 | 16.13203 | 36001 ft | 427 kts | 316° |
| 2026-05-05 17:42 | 45.08481 | 16.07721 | 35999 ft | 427 kts | 316° |
| 2026-05-05 17:43 | 45.12986 | 16.02238 | 35999 ft | 427 kts | 316° |
| 2026-05-05 17:43 | 45.17523 | 15.96707 | 35993 ft | 428 kts | 316° |
| 2026-05-05 17:44 | 45.22032 | 15.91202 | 35992 ft | 429 kts | 317° |
| 2026-05-05 17:44 | 45.26894 | 15.86246 | 35989 ft | 431 kts | 321° |
| 2026-05-05 17:45 | 45.31806 | 15.81345 | 35986 ft | 431 kts | 321° |
| 2026-05-05 17:45 | 45.36723 | 15.76426 | 35982 ft | 432 kts | 321° |
| 2026-05-05 17:46 | 45.41637 | 15.71493 | 35982 ft | 432 kts | 321° |
| 2026-05-05 17:46 | 45.46550 | 15.66536 | 35977 ft | 432 kts | 321° |
| 2026-05-05 17:47 | 45.51466 | 15.61580 | 35976 ft | 433 kts | 321° |
| 2026-05-05 17:47 | 45.56387 | 15.56615 | 35972 ft | 433 kts | 321° |
| 2026-05-05 17:48 | 45.61337 | 15.51593 | 35970 ft | 434 kts | 321° |
| 2026-05-05 17:48 | 45.66257 | 15.46594 | 35969 ft | 435 kts | 321° |
| 2026-05-05 17:49 | 45.71191 | 15.41577 | 35969 ft | 435 kts | 321° |
| 2026-05-05 17:49 | 45.76153 | 15.36514 | 35969 ft | 435 kts | 321° |
| 2026-05-05 17:50 | 45.81034 | 15.31382 | 35971 ft | 435 kts | 319° |
| 2026-05-05 17:50 | 45.85120 | 15.26853 | 35971 ft | 435 kts | 319° |
| 2026-05-05 17:51 | 45.89848 | 15.21547 | 35971 ft | 435 kts | 319° |
| 2026-05-05 17:51 | 45.94646 | 15.16205 | 35970 ft | 435 kts | 319° |
| 2026-05-05 17:52 | 45.99434 | 15.10911 | 35969 ft | 436 kts | 319° |
| 2026-05-05 17:52 | 46.04234 | 15.05581 | 35971 ft | 436 kts | 319° |
| 2026-05-05 17:53 | 46.09067 | 15.00196 | 35976 ft | 436 kts | 319° |
| 2026-05-05 17:53 | 46.13873 | 14.94829 | 35977 ft | 437 kts | 319° |
| 2026-05-05 17:54 | 46.18678 | 14.89463 | 35981 ft | 437 kts | 319° |
| 2026-05-05 17:54 | 46.23477 | 14.84082 | 35990 ft | 437 kts | 318° |
| 2026-05-05 17:55 | 46.28276 | 14.78683 | 35989 ft | 437 kts | 319° |
| 2026-05-05 17:55 | 46.33070 | 14.73284 | 35986 ft | 437 kts | 319° |
| 2026-05-05 17:56 | 46.37868 | 14.67864 | 35979 ft | 438 kts | 319° |
| 2026-05-05 17:56 | 46.42664 | 14.62408 | 35977 ft | 438 kts | 318° |
| 2026-05-05 17:57 | 46.47457 | 14.56932 | 35946 ft | 439 kts | 318° |
| 2026-05-05 17:57 | 46.52261 | 14.51448 | 35944 ft | 439 kts | 318° |
| 2026-05-05 17:58 | 46.57108 | 14.45925 | 35946 ft | 440 kts | 319° |
| 2026-05-05 17:58 | 46.61886 | 14.40460 | 35948 ft | 440 kts | 318° |
| 2026-05-05 17:59 | 46.66723 | 14.34904 | 35953 ft | 440 kts | 319° |
| 2026-05-05 17:59 | 46.71559 | 14.29332 | 35957 ft | 441 kts | 318° |
| 2026-05-05 18:00 | 46.76390 | 14.23745 | 35950 ft | 441 kts | 318° |
| 2026-05-05 18:00 | 46.81205 | 14.18168 | 35942 ft | 441 kts | 318° |
| 2026-05-05 18:01 | 46.86017 | 14.12596 | 35935 ft | 442 kts | 318° |
| 2026-05-05 18:01 | 46.90829 | 14.07003 | 35918 ft | 441 kts | 318° |
| 2026-05-05 18:01 | 46.93242 | 14.04195 | 35522 ft | 444 kts | 318° |
| 2026-05-05 18:02 | 46.95649 | 14.01385 | 35022 ft | 443 kts | 318° |
| 2026-05-05 18:02 | 46.98089 | 13.98536 | 34543 ft | 443 kts | 318° |
| 2026-05-05 18:02 | 47.00503 | 13.95716 | 34056 ft | 444 kts | 318° |
| 2026-05-05 18:02 | 47.02919 | 13.92888 | 33531 ft | 445 kts | 317° |
| 2026-05-05 18:03 | 47.05341 | 13.90047 | 32985 ft | 447 kts | 317° |
| 2026-05-05 18:03 | 47.07782 | 13.87186 | 32468 ft | 450 kts | 317° |
| 2026-05-05 18:03 | 47.10234 | 13.84311 | 31942 ft | 451 kts | 317° |
| 2026-05-05 18:03 | 47.12722 | 13.81392 | 31424 ft | 453 kts | 317° |
| 2026-05-05 18:04 | 47.15194 | 13.78485 | 30923 ft | 456 kts | 317° |
| 2026-05-05 18:04 | 47.17673 | 13.75562 | 30428 ft | 458 kts | 317° |
| 2026-05-05 18:04 | 47.20156 | 13.72633 | 29939 ft | 460 kts | 317° |
| 2026-05-05 18:04 | 47.22658 | 13.69681 | 29359 ft | 462 kts | 317° |
| 2026-05-05 18:05 | 47.25207 | 13.66665 | 28793 ft | 464 kts | 317° |
| 2026-05-05 18:05 | 47.27759 | 13.63638 | 28234 ft | 465 kts | 317° |
| 2026-05-05 18:05 | 47.30246 | 13.60684 | 27707 ft | 467 kts | 317° |
| 2026-05-05 18:05 | 47.32786 | 13.57667 | 27178 ft | 469 kts | 317° |
| 2026-05-05 18:06 | 47.35360 | 13.54605 | 26622 ft | 471 kts | 317° |
| 2026-05-05 18:06 | 47.37047 | 13.52593 | 26254 ft | 470 kts | 317° |
| 2026-05-05 18:06 | 47.40411 | 13.48582 | 25539 ft | 467 kts | 317° |
| 2026-05-05 18:06 | 47.42935 | 13.45569 | 24978 ft | 465 kts | 317° |
| 2026-05-05 18:07 | 47.45473 | 13.42541 | 24460 ft | 462 kts | 317° |
| 2026-05-05 18:07 | 47.47936 | 13.39601 | 23941 ft | 460 kts | 317° |
| 2026-05-05 18:07 | 47.50443 | 13.36604 | 23426 ft | 453 kts | 317° |
| 2026-05-05 18:07 | 47.52866 | 13.33706 | 22939 ft | 443 kts | 318° |
| 2026-05-05 18:08 | 47.55236 | 13.30864 | 22478 ft | 433 kts | 318° |
| 2026-05-05 18:08 | 47.57569 | 13.28060 | 22027 ft | 425 kts | 317° |
| 2026-05-05 18:08 | 47.59851 | 13.25310 | 21583 ft | 417 kts | 317° |
| 2026-05-05 18:08 | 47.62077 | 13.22622 | 21135 ft | 409 kts | 317° |
| 2026-05-05 18:09 | 47.64290 | 13.19948 | 20698 ft | 402 kts | 317° |
| 2026-05-05 18:09 | 47.66450 | 13.17339 | 20273 ft | 396 kts | 317° |
| 2026-05-05 18:09 | 47.68570 | 13.14776 | 19853 ft | 391 kts | 317° |
| 2026-05-05 18:09 | 47.70668 | 13.12235 | 19440 ft | 386 kts | 317° |
| 2026-05-05 18:10 | 47.72735 | 13.09728 | 19031 ft | 382 kts | 317° |
| 2026-05-05 18:10 | 47.74747 | 13.07283 | 18640 ft | 378 kts | 317° |
| 2026-05-05 18:10 | 47.76116 | 13.05619 | 18365 ft | 375 kts | 318° |
| 2026-05-05 18:10 | 47.78128 | 13.03177 | 17951 ft | 372 kts | 318° |
| 2026-05-05 18:11 | 47.80119 | 13.00754 | 17499 ft | 369 kts | 318° |
| 2026-05-05 18:11 | 47.82098 | 12.98338 | 17058 ft | 366 kts | 318° |
| 2026-05-05 18:11 | 47.84061 | 12.95939 | 16618 ft | 364 kts | 318° |
| 2026-05-05 18:11 | 47.86008 | 12.93560 | 16182 ft | 361 kts | 318° |
| 2026-05-05 18:12 | 47.88000 | 12.91127 | 15743 ft | 359 kts | 318° |
| 2026-05-05 18:12 | 47.89899 | 12.88802 | 15324 ft | 356 kts | 318° |
| 2026-05-05 18:12 | 47.91901 | 12.86350 | 14886 ft | 353 kts | 318° |
| 2026-05-05 18:12 | 47.93664 | 12.84133 | 14487 ft | 350 kts | 315° |
| 2026-05-05 18:13 | 47.95570 | 12.81157 | 14033 ft | 345 kts | 307° |
| 2026-05-05 18:13 | 47.96829 | 12.78648 | 13825 ft | 341 kts | 301° |
| 2026-05-05 18:13 | 47.98063 | 12.75620 | 13809 ft | 339 kts | 298° |
| 2026-05-05 18:13 | 47.99234 | 12.72660 | 13809 ft | 325 kts | 298° |
| 2026-05-05 18:14 | 48.00362 | 12.69825 | 13809 ft | 311 kts | 298° |
| 2026-05-05 18:14 | 48.01473 | 12.67038 | 13811 ft | 305 kts | 298° |
| 2026-05-05 18:14 | 48.02577 | 12.64261 | 13520 ft | 305 kts | 298° |
| 2026-05-05 18:14 | 48.03590 | 12.61712 | 13149 ft | 305 kts | 298° |
| 2026-05-05 18:15 | 48.04688 | 12.58948 | 12749 ft | 305 kts | 298° |
| 2026-05-05 18:15 | 48.05775 | 12.56226 | 12359 ft | 305 kts | 300° |
| 2026-05-05 18:15 | 48.07193 | 12.53879 | 11980 ft | 308 kts | 320° |
| 2026-05-05 18:15 | 48.08988 | 12.52052 | 11589 ft | 308 kts | 324° |
| 2026-05-05 18:16 | 48.10772 | 12.50341 | 11224 ft | 308 kts | 324° |
| 2026-05-05 18:16 | 48.12600 | 12.48600 | 10857 ft | 307 kts | 324° |
| 2026-05-05 18:16 | 48.14370 | 12.46924 | 10499 ft | 300 kts | 324° |
| 2026-05-05 18:16 | 48.16138 | 12.45265 | 10130 ft | 290 kts | 324° |
| 2026-05-05 18:17 | 48.17891 | 12.43634 | 9759 ft | 285 kts | 324° |
| 2026-05-05 18:17 | 48.19485 | 12.42161 | 9466 ft | 284 kts | 324° |
| 2026-05-05 18:17 | 48.21200 | 12.40575 | 9146 ft | 282 kts | 324° |
| 2026-05-05 18:17 | 48.22853 | 12.39038 | 8832 ft | 281 kts | 324° |
| 2026-05-05 18:18 | 48.24507 | 12.37496 | 8538 ft | 277 kts | 324° |
| 2026-05-05 18:18 | 48.26124 | 12.35988 | 8287 ft | 271 kts | 324° |
| 2026-05-05 18:18 | 48.27749 | 12.34476 | 8019 ft | 260 kts | 324° |
| 2026-05-05 18:18 | 48.29291 | 12.33041 | 7766 ft | 253 kts | 324° |
| 2026-05-05 18:19 | 48.30744 | 12.31686 | 7525 ft | 251 kts | 324° |
| 2026-05-05 18:19 | 48.32220 | 12.30308 | 7253 ft | 249 kts | 324° |
| 2026-05-05 18:19 | 48.33677 | 12.28910 | 6986 ft | 246 kts | 318° |
| 2026-05-05 18:19 | 48.34744 | 12.26984 | 6720 ft | 238 kts | 297° |
| 2026-05-05 18:20 | 48.35546 | 12.24819 | 6457 ft | 236 kts | 295° |
| 2026-05-05 18:20 | 48.36322 | 12.22584 | 6207 ft | 234 kts | 294° |
| 2026-05-05 18:20 | 48.37044 | 12.20412 | 5949 ft | 229 kts | 289° |
| 2026-05-05 18:20 | 48.37286 | 12.18104 | 5688 ft | 223 kts | 265° |
| 2026-05-05 18:21 | 48.37121 | 12.15800 | 5443 ft | 220 kts | 263° |
| 2026-05-05 18:21 | 48.36952 | 12.13529 | 5191 ft | 218 kts | 264° |
| 2026-05-05 18:21 | 48.36787 | 12.11294 | 5038 ft | 211 kts | 264° |
| 2026-05-05 18:21 | 48.36622 | 12.09052 | 5001 ft | 199 kts | 263° |
| 2026-05-05 18:22 | 48.36481 | 12.07131 | 4918 ft | 189 kts | 264° |
| 2026-05-05 18:22 | 48.36336 | 12.05180 | 4702 ft | 183 kts | 264° |
| 2026-05-05 18:22 | 48.36198 | 12.03322 | 4477 ft | 178 kts | 265° |
| 2026-05-05 18:22 | 48.36061 | 12.01480 | 4242 ft | 175 kts | 265° |
| 2026-05-05 18:23 | 48.35925 | 11.99650 | 4003 ft | 172 kts | 265° |
| 2026-05-05 18:23 | 48.35793 | 11.97881 | 3782 ft | 171 kts | 265° |
| 2026-05-05 18:23 | 48.35661 | 11.96119 | 3554 ft | 169 kts | 265° |
| 2026-05-05 18:23 | 48.35530 | 11.94370 | 3333 ft | 168 kts | 266° |
| 2026-05-05 18:24 | 48.35401 | 11.92657 | 3131 ft | 158 kts | 266° |
| 2026-05-05 18:24 | 48.35283 | 11.91102 | 2922 ft | 143 kts | 266° |
| 2026-05-05 18:24 | 48.35173 | 11.89642 | 2731 ft | 139 kts | 265° |
| 2026-05-05 18:24 | 48.35065 | 11.88206 | 2542 ft | 136 kts | 267° |
| 2026-05-05 18:25 | 48.34958 | 11.86786 | 2356 ft | 137 kts | 265° |
| 2026-05-05 18:25 | 48.34923 | 11.86320 | 2292 ft | 136 kts | 264° |
| 2026-05-05 18:25 | 48.34739 | 11.83892 | 1978 ft | 140 kts | 264° |
| 2026-05-05 18:25 | 48.34626 | 11.82435 | 1796 ft | 140 kts | 264° |
| 2026-05-05 18:26 | 48.34550 | 11.81466 | 1676 ft | 140 kts | 265° |
| 2026-05-05 18:26 | 48.34413 | 11.79568 | 1483 ft | 126 kts | 265° |
| 2026-05-05 18:26 | 48.34345 | 11.78666 | 1485 ft | 50 kts | 262° |
| 2026-05-05 18:26 | 48.34305 | 11.78236 | 1482 ft | 36 kts | 265° |
| 2026-05-05 18:27 | 48.34340 | 11.77896 | 1475 ft | 27 kts | 292° |
| 2026-05-05 18:27 | 48.34410 | 11.77656 | 1476 ft | 20 kts | 294° |
| 2026-05-05 18:27 | 48.34459 | 11.77497 | 1481 ft | 10 kts | 300° |
| 2026-05-05 18:27 | 48.34518 | 11.77440 | 1478 ft | 11 kts | 349° |
| 2026-05-05 18:28 | 48.34640 | 11.77577 | 1481 ft | 17 kts | 83° |
| 2026-05-05 18:28 | 48.34650 | 11.77703 | 1476 ft | 20 kts | 83° |
| 2026-05-05 18:28 | 48.34666 | 11.77916 | 1485 ft | 20 kts | 84° |
| 2026-05-05 18:29 | 48.34686 | 11.78184 | 1481 ft | 18 kts | 83° |
| 2026-05-05 18:29 | 48.34697 | 11.78322 | 1474 ft | 22 kts | 83° |
| 2026-05-05 18:29 | 48.34716 | 11.78563 | 1485 ft | 24 kts | 84° |
| 2026-05-05 18:29 | 48.34736 | 11.78819 | 1481 ft | 25 kts | 83° |
| 2026-05-05 18:30 | 48.34755 | 11.79082 | 1477 ft | 25 kts | 83° |
| 2026-05-05 18:30 | 48.34772 | 11.79297 | 1477 ft | 18 kts | 83° |
| 2026-05-05 18:30 | 48.34786 | 11.79474 | 1485 ft | 16 kts | 83° |
| 2026-05-05 18:30 | 48.34797 | 11.79625 | 1474 ft | 11 kts | 83° |
| 2026-05-05 18:31 | 48.34838 | 11.79688 | 1473 ft | 8 kts | 358° |
| 2026-05-05 18:31 | 48.34902 | 11.79683 | 1485 ft | 13 kts | 355° |
| 2026-05-05 18:31 | 48.34986 | 11.79594 | 1476 ft | 17 kts | 270° |
| 2026-05-05 18:31 | 48.35080 | 11.79519 | 1485 ft | 18 kts | 353° |
| 2026-05-05 18:32 | 48.35208 | 11.79496 | 1479 ft | 20 kts | 353° |
| 2026-05-05 18:32 | 48.35333 | 11.79474 | 1482 ft | 18 kts | 353° |
| 2026-05-05 18:32 | 48.35462 | 11.79451 | 1479 ft | 19 kts | 353° |
| 2026-05-05 18:32 | 48.35573 | 11.79433 | 1483 ft | 14 kts | 354° |
| 2026-05-05 18:33 | 48.35673 | 11.79416 | 1474 ft | 15 kts | 353° |
| 2026-05-05 18:33 | 48.35747 | 11.79394 | 1485 ft | 8 kts | 320° |
| 2026-05-05 18:33 | 48.35751 | 11.79316 | 1485 ft | 8 kts | 263° |
| 2026-05-05 18:33 | 48.35746 | 11.79252 | 1478 ft | 3 kts | 263° |
| 2026-05-05 18:34 | 48.35746 | 11.79251 | 1478 ft | 0 kts | 263° |